Terminal Aerodrome Forecast
Issued by NWS Missoula, MT

Home | Current Version | Previous Version | Text Only | Print | Product List | Glossary On
Versions: 1 2 3 4 5 6 7 8 9 10 11 12 13 14 15 16
000
FTUS45 KMSO 012300
TAFMSO
TAF
KMSO 012320Z 0200/0224 18015G25KT P6SM VCSH SCT050 BKN120
     FM020100 19010KT P6SM -SHRA BKN050 OVC080
     FM020500 VRB05KT P6SM VCSH SCT050 BKN120=

USA.gov is the U.S. government's official web portal to all federal, state and local government web resources and services.